X  Fechar Dados meteorológicos de METAR da aviação     EDDM Munich Airport
Temperatura
25°F Temperatura
23°F Ponto de orvalho
93% Umidade



Vento
2 MPH
3 KM/H
1 M/S
2 NÓS



10°
N
Condições atuais

Muito nublado Muito nublado
Pressão 1036.91 (hPa) - 30.62 (inHg)
Visibilidade 6.2 (milha) - 10 (km)
Aeroporto
Código do aeroporto EDDM

Localização: Munich Airport
Distância: 73 (mi)

Metar:
EDDM 060150Z AUTO 01002KT 9999 BKN023 M04/M05 Q1037 NOSIG

Hora: 06-02-2023 02:50 CET